createdAt,value
2018-06-28T00:01:19.498Z,18.70
2018-06-28T00:03:47.236Z,18.50
2018-06-28T00:06:14.792Z,18.40
2018-06-28T00:08:42.463Z,18.30
2018-06-28T00:11:10.122Z,18.30
2018-06-28T00:13:37.715Z,18.20
2018-06-28T00:16:06.538Z,18.10
2018-06-28T00:18:34.190Z,18.00
2018-06-28T00:21:01.882Z,18.00
2018-06-28T00:23:29.479Z,17.90
2018-06-28T00:25:57.079Z,18.00
2018-06-28T00:28:24.687Z,18.00
2018-06-28T00:30:52.273Z,18.10
2018-06-28T00:33:20.082Z,18.20
2018-06-28T00:35:47.737Z,18.20
2018-06-28T00:38:15.382Z,18.20
2018-06-28T00:40:43.005Z,18.20
2018-06-28T00:43:10.622Z,18.10
2018-06-28T00:45:38.320Z,18.00
2018-06-28T00:48:06.125Z,17.90
2018-06-28T00:50:33.784Z,17.80
2018-06-28T00:53:01.671Z,17.70
2018-06-28T00:55:29.344Z,17.70
2018-06-28T00:57:57.013Z,17.60
2018-06-28T01:00:24.683Z,17.60
2018-06-28T01:02:52.298Z,17.50
2018-06-28T01:05:19.997Z,17.50
2018-06-28T01:07:47.627Z,17.40
2018-06-28T01:10:15.221Z,17.40
2018-06-28T01:12:42.821Z,17.30
2018-06-28T01:15:10.475Z,17.30
2018-06-28T01:17:38.119Z,17.30
2018-06-28T01:20:06.411Z,17.40
2018-06-28T01:22:34.049Z,17.50
2018-06-28T01:25:01.698Z,17.50
2018-06-28T01:27:29.331Z,17.50
2018-06-28T01:29:56.893Z,17.50
2018-06-28T01:32:24.856Z,17.50
2018-06-28T01:34:52.547Z,17.60
2018-06-28T01:37:20.221Z,17.60
2018-06-28T01:39:47.777Z,17.60
2018-06-28T01:43:44.123Z,17.60
2018-06-28T01:46:11.802Z,17.60
2018-06-28T01:48:39.592Z,17.40
2018-06-28T01:51:07.294Z,17.20
2018-06-28T01:53:35.016Z,17.10
2018-06-28T01:56:02.673Z,17.10
2018-06-28T01:58:30.323Z,17.10
2018-06-28T02:00:57.924Z,17.00
2018-06-28T02:03:25.610Z,16.90
2018-06-28T02:08:21.736Z,16.90
2018-06-28T02:10:49.393Z,16.90
2018-06-28T02:13:17.441Z,16.90
2018-06-28T02:15:45.075Z,16.90
2018-06-28T02:18:12.694Z,16.90
2018-06-28T02:20:40.560Z,16.90
2018-06-28T02:23:08.378Z,16.80
2018-06-28T02:25:36.350Z,16.80
2018-06-28T02:28:04.478Z,16.80
2018-06-28T02:30:32.324Z,16.70
2018-06-28T02:33:00.029Z,16.70
2018-06-28T02:35:27.974Z,16.70
2018-06-28T02:37:55.731Z,16.70
2018-06-28T02:40:23.487Z,16.60
2018-06-28T02:42:51.251Z,16.70
2018-06-28T02:45:25.616Z,16.60
2018-06-28T02:50:21.029Z,16.60
2018-06-28T02:52:48.651Z,16.60
2018-06-28T02:55:16.315Z,16.60
2018-06-28T02:57:43.943Z,16.70
2018-06-28T03:00:11.589Z,16.80
2018-06-28T03:02:39.227Z,16.90
2018-06-28T03:05:06.884Z,17.00
2018-06-28T03:07:34.522Z,17.10
2018-06-28T03:10:02.186Z,17.10
2018-06-28T03:12:29.828Z,17.10
2018-06-28T03:14:57.462Z,17.10
2018-06-28T03:17:25.264Z,17.10
2018-06-28T03:19:52.935Z,17.10
2018-06-28T03:22:20.594Z,17.00
2018-06-28T03:24:48.182Z,17.00
2018-06-28T03:27:15.942Z,16.90
2018-06-28T03:29:43.591Z,16.90
2018-06-28T03:32:11.364Z,16.90
2018-06-28T03:34:39.082Z,16.90
2018-06-28T03:37:06.802Z,16.90
2018-06-28T03:39:34.422Z,17.00
2018-06-28T03:42:02.044Z,17.00
2018-06-28T03:44:29.721Z,17.10
2018-06-28T03:46:57.349Z,17.10
2018-06-28T03:49:25.104Z,17.10
2018-06-28T03:51:52.773Z,17.20
2018-06-28T03:54:20.525Z,17.10
2018-06-28T03:56:48.173Z,17.20
2018-06-28T03:59:15.784Z,17.20
2018-06-28T04:01:43.453Z,17.20
2018-06-28T04:04:10.993Z,17.30
2018-06-28T04:06:38.628Z,17.40
2018-06-28T04:09:09.344Z,17.40
2018-06-28T04:11:36.957Z,17.40
2018-06-28T04:14:04.582Z,17.50
2018-06-28T04:16:32.148Z,17.50
2018-06-28T04:18:59.848Z,17.60
2018-06-28T04:21:27.494Z,17.60
2018-06-28T04:23:55.120Z,17.70
2018-06-28T04:26:22.778Z,17.90
2018-06-28T04:28:50.374Z,18.10
2018-06-28T04:31:18.076Z,18.20
2018-06-28T04:33:45.672Z,18.40
2018-06-28T04:36:13.326Z,18.40
2018-06-28T04:38:40.964Z,18.40
2018-06-28T04:41:08.546Z,18.40
2018-06-28T04:43:36.206Z,18.40
2018-06-28T04:46:03.896Z,18.20
2018-06-28T04:48:31.536Z,18.10
2018-06-28T04:50:59.238Z,18.20
2018-06-28T04:53:26.857Z,18.30
2018-06-28T04:55:54.501Z,18.50
2018-06-28T04:58:22.093Z,18.50
2018-06-28T05:00:49.759Z,18.40
2018-06-28T05:03:17.331Z,18.60
2018-06-28T05:05:44.943Z,18.60
2018-06-28T05:08:12.563Z,18.80
2018-06-28T05:10:40.225Z,18.90
2018-06-28T05:13:07.928Z,18.90
2018-06-28T05:15:35.535Z,19.10
2018-06-28T05:18:03.174Z,19.00
2018-06-28T05:20:30.798Z,19.10
2018-06-28T05:22:58.406Z,19.20
2018-06-28T05:25:26.022Z,19.20
2018-06-28T05:27:53.631Z,19.10
2018-06-28T05:30:21.286Z,18.90
2018-06-28T05:32:49.322Z,18.90
2018-06-28T05:37:44.748Z,18.60
2018-06-28T05:40:12.419Z,18.70
2018-06-28T05:42:40.073Z,18.80
2018-06-28T05:45:07.713Z,18.90
2018-06-28T05:47:35.293Z,19.10
2018-06-28T05:50:03.014Z,19.20
2018-06-28T05:52:30.616Z,19.60
2018-06-28T05:54:58.287Z,19.60
2018-06-28T05:57:25.897Z,19.80
2018-06-28T05:59:53.541Z,20.30
2018-06-28T06:02:21.124Z,20.60
2018-06-28T06:04:48.743Z,21.00
2018-06-28T06:07:17.371Z,21.00
2018-06-28T06:09:45.025Z,21.10
2018-06-28T06:12:12.638Z,21.00
2018-06-28T06:14:40.303Z,21.00
2018-06-28T06:17:07.894Z,21.30
2018-06-28T06:19:35.559Z,21.50
2018-06-28T06:22:03.245Z,21.60
2018-06-28T06:24:30.866Z,21.50
2018-06-28T06:26:58.496Z,21.40
2018-06-28T06:29:26.180Z,21.10
2018-06-28T06:31:53.789Z,20.90
2018-06-28T06:34:21.479Z,21.20
2018-06-28T06:36:49.742Z,21.10
2018-06-28T06:39:17.378Z,21.40
2018-06-28T06:41:45.001Z,21.70
2018-06-28T06:46:40.479Z,21.90
2018-06-28T06:49:08.148Z,22.00
2018-06-28T06:51:35.747Z,22.00
2018-06-28T06:54:03.377Z,22.00
2018-06-28T06:56:31.023Z,22.10
2018-06-28T06:58:58.729Z,22.20
2018-06-28T07:01:26.383Z,22.70
2018-06-28T07:03:54.065Z,23.00
2018-06-28T07:06:21.701Z,23.00
2018-06-28T07:08:49.563Z,23.00
2018-06-28T07:11:17.239Z,22.90
2018-06-28T07:13:44.839Z,22.80
2018-06-28T07:16:12.447Z,22.70
2018-06-28T07:18:40.249Z,23.20
2018-06-28T07:21:07.902Z,23.50
2018-06-28T07:23:35.578Z,23.70
2018-06-28T07:26:03.326Z,23.90
2018-06-28T07:30:58.878Z,23.80
2018-06-28T07:33:26.688Z,23.90
2018-06-28T07:35:54.350Z,23.90
2018-06-28T07:38:21.976Z,24.20
2018-06-28T07:40:49.677Z,24.20
2018-06-28T07:43:17.334Z,24.20
2018-06-28T07:45:44.994Z,24.40
2018-06-28T07:48:12.642Z,24.50
2018-06-28T07:50:40.459Z,24.80
2018-06-28T07:53:07.966Z,24.90
2018-06-28T07:55:35.558Z,25.20
2018-06-28T07:58:03.254Z,25.30
2018-06-28T08:00:31.020Z,25.30
2018-06-28T08:02:58.689Z,25.20
2018-06-28T08:05:27.300Z,25.30
2018-06-28T08:07:54.895Z,25.40
2018-06-28T08:10:22.567Z,25.30
2018-06-28T08:12:50.231Z,25.20
2018-06-28T08:15:18.001Z,24.60
2018-06-28T08:20:13.372Z,24.90
2018-06-28T08:22:41.007Z,24.90
2018-06-28T08:25:08.585Z,25.10
2018-06-28T08:27:36.391Z,25.10
2018-06-28T08:30:04.915Z,25.30
2018-06-28T08:32:32.590Z,25.50
2018-06-28T08:35:00.174Z,25.70
2018-06-28T08:37:27.824Z,25.80
2018-06-28T08:39:55.446Z,26.10
2018-06-28T08:42:23.107Z,26.10
2018-06-28T08:44:50.736Z,25.90
2018-06-28T08:47:18.364Z,25.80
2018-06-28T08:49:45.977Z,25.30
2018-06-28T08:52:13.653Z,25.40
2018-06-28T08:57:08.949Z,25.30
2018-06-28T08:59:36.551Z,25.50
2018-06-28T09:02:04.391Z,25.60
2018-06-28T09:04:32.023Z,25.30
2018-06-28T09:06:59.779Z,25.50
2018-06-28T09:09:27.393Z,25.50
2018-06-28T09:11:55.035Z,25.30
2018-06-28T09:14:22.707Z,25.60
2018-06-28T09:16:50.379Z,25.80
2018-06-28T09:19:18.061Z,26.00
2018-06-28T09:21:45.938Z,25.90
2018-06-28T09:24:13.589Z,25.90
2018-06-28T09:26:41.236Z,26.00
2018-06-28T09:29:08.851Z,25.80
2018-06-28T09:31:36.442Z,26.00
2018-06-28T09:34:04.141Z,26.30
2018-06-28T09:36:32.434Z,26.10
2018-06-28T09:39:00.120Z,26.10
2018-06-28T09:41:27.781Z,26.20
2018-06-28T09:43:55.434Z,26.10
2018-06-28T09:46:23.142Z,26.20
2018-06-28T09:48:50.818Z,25.80
2018-06-28T09:51:18.457Z,26.10
2018-06-28T09:53:46.628Z,26.30
2018-06-28T09:56:14.256Z,26.20
2018-06-28T09:58:41.970Z,26.30
2018-06-28T10:01:09.580Z,26.30
2018-06-28T10:03:37.458Z,26.10
2018-06-28T10:06:05.320Z,25.80
2018-06-28T10:08:32.954Z,25.80
2018-06-28T10:11:00.586Z,25.60
2018-06-28T10:13:28.232Z,25.50
2018-06-28T10:15:55.863Z,25.30
2018-06-28T10:18:23.488Z,25.10
2018-06-28T10:20:51.153Z,24.90
2018-06-28T10:23:18.851Z,24.90
2018-06-28T10:25:46.516Z,24.90
2018-06-28T10:28:14.151Z,24.80
2018-06-28T10:30:41.730Z,24.70
2018-06-28T10:33:10.235Z,24.50
2018-06-28T10:35:38.147Z,24.40
2018-06-28T10:38:05.846Z,24.30
2018-06-28T10:40:33.521Z,24.20
2018-06-28T10:43:01.431Z,24.30
2018-06-28T10:45:29.055Z,24.40
2018-06-28T10:47:56.644Z,24.30
2018-06-28T10:50:24.272Z,24.30
2018-06-28T10:52:51.895Z,24.40
2018-06-28T11:00:15.758Z,24.50
2018-06-28T11:02:43.366Z,24.50
2018-06-28T11:05:11.067Z,24.60
2018-06-28T11:07:38.748Z,24.50
2018-06-28T11:10:06.759Z,24.60
2018-06-28T11:12:34.379Z,24.60
2018-06-28T11:15:02.082Z,24.60
2018-06-28T11:17:29.715Z,24.60
2018-06-28T11:19:57.335Z,24.50
2018-06-28T11:22:25.091Z,24.60
2018-06-28T11:24:52.675Z,24.40
2018-06-28T11:27:20.455Z,24.40
2018-06-28T11:29:48.027Z,24.40
2018-06-28T11:32:15.750Z,24.20
2018-06-28T11:34:43.448Z,24.20
2018-06-28T11:37:11.405Z,24.00
2018-06-28T11:39:39.254Z,23.90
2018-06-28T11:42:06.874Z,23.90
2018-06-28T11:44:34.506Z,24.00
2018-06-28T11:47:02.177Z,23.90
2018-06-28T11:49:29.761Z,23.90
2018-06-28T11:51:57.410Z,24.00
2018-06-28T11:54:25.154Z,23.90
2018-06-28T11:56:52.786Z,23.90
2018-06-28T11:59:20.420Z,24.00
2018-06-28T12:01:48.026Z,24.00
2018-06-28T12:04:15.745Z,23.90
2018-06-28T12:06:43.435Z,23.90
2018-06-28T12:09:11.503Z,23.90
2018-06-28T12:11:39.507Z,23.70
2018-06-28T12:14:07.163Z,23.70
2018-06-28T12:16:34.873Z,23.60
2018-06-28T12:19:02.579Z,23.50
2018-06-28T12:21:30.201Z,23.40
2018-06-28T12:23:57.861Z,23.60
2018-06-28T12:28:53.283Z,23.50
2018-06-28T12:31:20.907Z,23.50
2018-06-28T12:33:48.697Z,23.50
2018-06-28T12:36:16.557Z,23.60
2018-06-28T12:38:44.328Z,23.60
2018-06-28T12:41:12.011Z,23.70
2018-06-28T12:43:39.600Z,23.70
2018-06-28T12:46:07.243Z,23.70
2018-06-28T12:48:34.896Z,23.70
2018-06-28T12:51:02.486Z,23.60
2018-06-28T12:53:30.140Z,23.40
2018-06-28T12:56:31.028Z,23.40
2018-06-28T12:59:01.129Z,23.40
2018-06-28T13:01:29.197Z,23.30
2018-06-28T13:03:57.156Z,23.20
2018-06-28T13:06:24.819Z,23.10
2018-06-28T13:08:53.283Z,23.10
2018-06-28T13:11:21.263Z,23.00
2018-06-28T13:13:48.933Z,23.00
2018-06-28T13:16:17.255Z,22.80
2018-06-28T13:18:45.686Z,22.90
2018-06-28T13:21:13.466Z,22.80
2018-06-28T13:23:41.175Z,22.80
2018-06-28T13:26:09.899Z,22.60
2018-06-28T13:28:37.601Z,22.60
2018-06-28T13:31:05.299Z,22.50
2018-06-28T13:33:32.924Z,22.40
2018-06-28T13:36:00.585Z,22.40
2018-06-28T13:38:28.261Z,22.40
2018-06-28T13:40:56.112Z,22.40
2018-06-28T13:43:23.588Z,22.30
2018-06-28T13:45:51.267Z,22.30
2018-06-28T13:48:19.466Z,22.30
2018-06-28T13:50:47.280Z,22.30
2018-06-28T13:53:15.032Z,22.30
2018-06-28T13:55:42.654Z,22.30
2018-06-28T13:58:10.320Z,22.30
2018-06-28T14:00:37.984Z,22.30
2018-06-28T14:03:05.757Z,22.40
2018-06-28T14:05:33.398Z,22.50
2018-06-28T14:08:01.073Z,22.50
2018-06-28T14:10:28.709Z,22.40
2018-06-28T14:12:56.363Z,22.40
2018-06-28T14:15:24.051Z,22.40
2018-06-28T14:17:51.713Z,22.50
2018-06-28T14:20:19.436Z,22.40
2018-06-28T14:22:47.237Z,22.40
2018-06-28T14:25:14.884Z,22.40
2018-06-28T14:27:42.500Z,22.40
2018-06-28T14:30:11.790Z,22.40
2018-06-28T14:32:39.934Z,22.50
2018-06-28T14:35:07.664Z,22.50
2018-06-28T14:37:35.390Z,22.60
2018-06-28T14:40:03.563Z,22.60
2018-06-28T14:42:31.230Z,22.70
2018-06-28T14:44:58.892Z,22.70
2018-06-28T14:47:26.484Z,22.70
2018-06-28T14:49:54.138Z,22.60
2018-06-28T14:52:21.786Z,22.70
2018-06-28T14:54:49.632Z,22.70
2018-06-28T14:57:17.287Z,22.70
2018-06-28T14:59:45.021Z,22.60
2018-06-28T15:02:12.861Z,22.60
2018-06-28T15:04:40.471Z,22.60
2018-06-28T15:07:08.208Z,22.60
2018-06-28T15:09:35.841Z,22.50
2018-06-28T15:12:03.601Z,22.50
2018-06-28T15:14:31.158Z,22.50
2018-06-28T15:16:58.841Z,22.40
2018-06-28T15:19:26.497Z,22.40
2018-06-28T15:21:54.219Z,22.40
2018-06-28T15:24:21.879Z,22.30
2018-06-28T15:26:49.554Z,22.60
2018-06-28T15:29:17.207Z,22.60
2018-06-28T15:31:44.911Z,22.70
2018-06-28T15:34:12.865Z,22.70
2018-06-28T15:36:40.545Z,22.70
2018-06-28T15:39:09.086Z,22.50
2018-06-28T15:41:37.290Z,22.30
2018-06-28T15:44:05.031Z,22.30
2018-06-28T15:46:32.989Z,22.30
2018-06-28T15:51:28.456Z,22.20
2018-06-28T15:53:56.080Z,22.30
2018-06-28T15:56:23.874Z,22.40
2018-06-28T15:58:51.490Z,22.40
2018-06-28T16:01:19.173Z,22.30
2018-06-28T16:03:46.838Z,22.30
2018-06-28T16:06:14.586Z,22.20
2018-06-28T16:08:42.284Z,22.20
2018-06-28T16:11:09.976Z,22.30
2018-06-28T16:13:37.616Z,22.20
2018-06-28T16:16:05.510Z,22.20
2018-06-28T16:18:33.239Z,22.10
2018-06-28T16:21:00.930Z,22.10
2018-06-28T16:23:28.639Z,22.00
2018-06-28T16:25:56.303Z,22.00
2018-06-28T16:28:23.889Z,22.00
2018-06-28T16:30:51.503Z,22.00
2018-06-28T16:33:19.173Z,22.00
2018-06-28T16:35:46.767Z,22.10
2018-06-28T16:38:14.393Z,22.10
2018-06-28T16:40:42.091Z,22.10
2018-06-28T16:43:09.769Z,22.10
2018-06-28T16:45:37.426Z,22.10
2018-06-28T16:48:05.213Z,22.00
2018-06-28T16:50:32.872Z,21.90
2018-06-28T16:53:00.712Z,21.80
2018-06-28T16:55:28.383Z,21.80
2018-06-28T16:57:56.201Z,21.70
2018-06-28T17:00:23.919Z,21.40
2018-06-28T17:02:51.638Z,21.20
2018-06-28T17:05:19.420Z,20.90
2018-06-28T17:07:47.314Z,20.90
2018-06-28T17:10:15.271Z,20.90
2018-06-28T17:12:42.933Z,20.90
2018-06-28T17:15:10.747Z,21.00
2018-06-28T17:17:38.523Z,21.00
2018-06-28T17:20:06.284Z,21.20
2018-06-28T17:22:34.140Z,21.40
2018-06-28T17:25:01.894Z,21.50
2018-06-28T17:27:29.665Z,21.60
2018-06-28T17:29:57.424Z,21.60
2018-06-28T17:32:25.267Z,21.80
2018-06-28T17:34:53.075Z,21.80
2018-06-28T17:37:20.817Z,21.90
2018-06-28T17:39:48.552Z,21.90
2018-06-28T17:42:16.156Z,21.80
2018-06-28T17:44:44.267Z,21.80
2018-06-28T17:47:11.980Z,21.80
2018-06-28T17:49:39.724Z,21.80
2018-06-28T17:52:08.865Z,21.80
2018-06-28T17:54:36.663Z,21.70
2018-06-28T17:57:04.498Z,21.60
2018-06-28T17:59:32.349Z,21.60
2018-06-28T18:02:00.067Z,21.50
2018-06-28T18:04:27.749Z,21.40
2018-06-28T18:06:55.455Z,21.40
2018-06-28T18:09:23.241Z,21.30
2018-06-28T18:14:18.983Z,21.30
2018-06-28T18:16:46.936Z,21.10
2018-06-28T18:19:14.688Z,21.00
2018-06-28T18:21:42.368Z,21.00
2018-06-28T18:24:10.108Z,20.90
2018-06-28T18:26:37.874Z,20.80
2018-06-28T18:29:05.636Z,20.70
2018-06-28T18:31:33.446Z,20.70
2018-06-28T18:34:01.178Z,20.70
2018-06-28T18:36:29.105Z,20.60
2018-06-28T18:38:56.918Z,20.60
2018-06-28T18:43:52.365Z,20.40
2018-06-28T18:46:20.204Z,20.50
2018-06-28T18:48:48.037Z,20.50
2018-06-28T18:51:16.819Z,20.60
2018-06-28T18:53:44.641Z,20.60
2018-06-28T18:56:12.365Z,20.60
2018-06-28T18:58:40.077Z,20.70
2018-06-28T19:01:07.909Z,20.70
2018-06-28T19:03:35.896Z,20.70
2018-06-28T19:06:03.736Z,20.70
2018-06-28T19:08:31.423Z,20.70
2018-06-28T19:10:59.091Z,20.80
2018-06-28T19:13:27.575Z,20.80
2018-06-28T19:16:01.143Z,20.70
2018-06-28T19:18:29.227Z,20.70
2018-06-28T19:21:02.806Z,20.70
2018-06-28T19:23:36.211Z,20.70
2018-06-28T19:26:04.389Z,20.70
2018-06-28T19:28:32.313Z,20.70
2018-06-28T19:31:05.711Z,20.80
2018-06-28T19:33:33.417Z,20.80
2018-06-28T19:36:01.154Z,20.80
2018-06-28T19:38:34.557Z,20.90
2018-06-28T19:41:08.079Z,20.80
2018-06-28T19:43:35.832Z,20.80
2018-06-28T19:46:03.549Z,20.70
2018-06-28T19:48:31.305Z,20.70
2018-06-28T19:53:32.660Z,20.60
2018-06-28T19:56:00.564Z,20.70
2018-06-28T19:58:28.324Z,20.80
2018-06-28T20:01:01.827Z,20.80
2018-06-28T20:03:35.421Z,20.90
2018-06-28T20:06:03.433Z,20.90
2018-06-28T20:08:31.391Z,20.90
2018-06-28T20:10:59.371Z,21.00
2018-06-28T20:13:33.076Z,21.10
2018-06-28T20:16:06.568Z,21.10
2018-06-28T20:18:40.154Z,21.00
2018-06-28T20:21:07.983Z,21.00
2018-06-28T20:23:35.805Z,21.00
2018-06-28T20:26:09.369Z,21.00
2018-06-28T20:28:42.868Z,21.00
2018-06-28T20:31:16.508Z,21.00
2018-06-28T20:33:49.955Z,21.00
2018-06-28T20:36:17.823Z,21.00
2018-06-28T20:38:45.573Z,21.00
2018-06-28T20:41:13.321Z,21.00
2018-06-28T20:43:41.065Z,21.00
2018-06-28T20:46:08.793Z,21.00
2018-06-28T20:48:36.524Z,21.00
2018-06-28T20:51:04.547Z,21.00
2018-06-28T20:53:32.743Z,21.10
2018-06-28T20:56:00.619Z,21.00
2018-06-28T20:58:28.940Z,21.00
2018-06-28T21:00:58.156Z,21.00
2018-06-28T21:03:26.841Z,21.00
2018-06-28T21:08:22.302Z,21.10
2018-06-28T21:10:50.138Z,21.10
2018-06-28T21:15:45.724Z,21.10
2018-06-28T21:18:13.383Z,21.10
2018-06-28T21:20:41.094Z,21.10
2018-06-28T21:23:08.828Z,21.10
2018-06-28T21:25:36.462Z,21.20
2018-06-28T21:28:04.262Z,21.30
2018-06-28T21:30:31.965Z,21.30
2018-06-28T21:32:59.738Z,21.30
2018-06-28T21:35:27.407Z,21.30
2018-06-28T21:37:55.097Z,21.30
2018-06-28T21:40:22.808Z,21.20
2018-06-28T21:42:50.480Z,21.10
2018-06-28T21:45:18.144Z,21.10
2018-06-28T21:47:45.899Z,21.10
2018-06-28T21:50:13.569Z,21.10
2018-06-28T21:52:41.181Z,21.20
2018-06-28T21:55:08.800Z,21.20
2018-06-28T21:57:36.451Z,21.20
2018-06-28T22:00:06.433Z,21.30
2018-06-28T22:02:34.134Z,21.40
2018-06-28T22:05:01.820Z,21.40
2018-06-28T22:07:29.458Z,21.30
2018-06-28T22:09:57.117Z,21.30
2018-06-28T22:12:24.793Z,21.30
2018-06-28T22:14:52.462Z,21.30
2018-06-28T22:17:20.112Z,21.30
2018-06-28T22:19:47.807Z,21.40
2018-06-28T22:22:15.528Z,21.40
2018-06-28T22:24:43.154Z,21.40
2018-06-28T22:27:10.834Z,21.40
2018-06-28T22:29:39.520Z,21.40
2018-06-28T22:32:07.205Z,21.30
2018-06-28T22:34:34.805Z,21.30
2018-06-28T22:37:02.664Z,21.30
2018-06-28T22:39:30.363Z,21.30
2018-06-28T22:41:57.997Z,21.40
2018-06-28T22:44:25.579Z,21.40
2018-06-28T22:46:53.241Z,21.30
2018-06-28T22:49:20.869Z,21.30
2018-06-28T22:51:48.524Z,21.30
2018-06-28T22:54:16.291Z,21.30
2018-06-28T22:56:43.997Z,21.40
2018-06-28T22:59:12.071Z,21.30
2018-06-28T23:01:39.719Z,21.30
2018-06-28T23:04:07.355Z,21.30
2018-06-28T23:06:35.032Z,21.40
2018-06-28T23:09:05.073Z,21.30
2018-06-28T23:11:32.729Z,21.30
2018-06-28T23:14:00.397Z,21.30
2018-06-28T23:16:28.099Z,21.40
2018-06-28T23:18:55.749Z,21.40
2018-06-28T23:23:51.149Z,21.30
2018-06-28T23:26:18.741Z,21.30
2018-06-28T23:28:46.299Z,21.30
2018-06-28T23:31:14.037Z,21.30
2018-06-28T23:33:41.658Z,21.20
2018-06-28T23:36:09.392Z,21.10
2018-06-28T23:38:37.088Z,21.10
2018-06-28T23:41:04.832Z,21.00
2018-06-28T23:43:32.488Z,21.00
2018-06-28T23:46:00.122Z,21.00
2018-06-28T23:48:27.849Z,20.90
2018-06-28T23:50:55.565Z,21.00
2018-06-28T23:53:23.213Z,21.00
2018-06-28T23:55:50.928Z,21.00
2018-06-28T23:58:18.653Z,21.00
